createdAt,value
2017-08-06T00:00:06.831Z,16.10
2017-08-06T00:02:34.302Z,16.10
2017-08-06T00:05:02.113Z,16.00
2017-08-06T00:07:29.788Z,15.90
2017-08-06T00:12:36.808Z,15.80
2017-08-06T00:15:07.341Z,15.80
2017-08-06T00:17:38.130Z,15.80
2017-08-06T00:20:05.695Z,15.80
2017-08-06T00:22:34.149Z,15.80
2017-08-06T00:25:03.555Z,15.80
2017-08-06T00:27:31.086Z,15.70
2017-08-06T00:30:04.384Z,15.70
2017-08-06T00:32:32.972Z,15.70
2017-08-06T00:35:00.640Z,15.80
2017-08-06T00:37:28.404Z,15.70
2017-08-06T00:39:56.752Z,15.70
2017-08-06T00:42:24.240Z,15.70
2017-08-06T00:44:51.728Z,15.60
2017-08-06T00:47:20.384Z,15.60
2017-08-06T00:49:48.712Z,15.60
2017-08-06T00:52:16.419Z,15.60
2017-08-06T00:54:44.818Z,15.60
2017-08-06T00:57:14.072Z,15.50
2017-08-06T00:59:42.796Z,15.50
2017-08-06T01:02:11.384Z,15.60
2017-08-06T01:04:38.887Z,15.60
2017-08-06T01:07:06.446Z,15.50
2017-08-06T01:09:33.968Z,15.50
2017-08-06T01:12:02.787Z,15.50
2017-08-06T01:14:30.292Z,15.50
2017-08-06T01:16:57.877Z,15.60
2017-08-06T01:19:26.210Z,15.60
2017-08-06T01:21:53.902Z,15.60
2017-08-06T01:24:23.251Z,15.60
2017-08-06T01:26:52.195Z,15.60
2017-08-06T01:29:21.169Z,15.50
2017-08-06T01:31:49.256Z,15.50
2017-08-06T01:34:16.806Z,15.50
2017-08-06T01:36:44.327Z,15.40
2017-08-06T01:39:11.825Z,15.40
2017-08-06T01:41:39.315Z,15.40
2017-08-06T01:44:07.852Z,15.30
2017-08-06T01:46:37.868Z,15.30
2017-08-06T01:49:05.457Z,15.30
2017-08-06T01:51:33.017Z,15.20
2017-08-06T01:54:01.312Z,15.10
2017-08-06T01:56:31.054Z,15.10
2017-08-06T01:58:58.554Z,15.10
2017-08-06T02:01:27.085Z,15.10
2017-08-06T02:03:54.652Z,15.10
2017-08-06T02:06:22.214Z,15.10
2017-08-06T02:08:50.452Z,15.10
2017-08-06T02:11:18.081Z,15.00
2017-08-06T02:13:45.563Z,15.00
2017-08-06T02:16:13.203Z,14.90
2017-08-06T02:18:40.727Z,14.90
2017-08-06T02:21:09.237Z,14.90
2017-08-06T02:23:36.702Z,14.80
2017-08-06T02:26:04.811Z,14.80
2017-08-06T02:28:32.927Z,14.70
2017-08-06T02:31:00.577Z,14.70
2017-08-06T02:33:29.141Z,14.60
2017-08-06T02:35:58.105Z,14.60
2017-08-06T02:38:26.128Z,14.60
2017-08-06T02:40:53.807Z,14.50
2017-08-06T02:43:22.708Z,14.40
2017-08-06T02:45:50.284Z,14.40
2017-08-06T02:48:17.812Z,14.40
2017-08-06T02:50:45.368Z,14.40
2017-08-06T02:53:12.942Z,14.30
2017-08-06T02:55:40.629Z,14.30
2017-08-06T02:58:09.008Z,14.30
2017-08-06T03:00:36.492Z,14.30
2017-08-06T03:03:04.861Z,14.20
2017-08-06T03:05:32.493Z,14.20
2017-08-06T03:08:00.142Z,14.20
2017-08-06T03:10:27.692Z,14.20
2017-08-06T03:12:57.076Z,14.10
2017-08-06T03:18:02.145Z,14.20
2017-08-06T03:20:29.695Z,14.20
2017-08-06T03:22:57.270Z,14.20
2017-08-06T03:25:24.819Z,14.20
2017-08-06T03:27:52.839Z,14.20
2017-08-06T03:30:20.304Z,14.20
2017-08-06T03:32:48.418Z,14.20
2017-08-06T03:35:15.939Z,14.20
2017-08-06T03:37:45.149Z,14.10
2017-08-06T03:40:14.224Z,14.10
2017-08-06T03:42:41.821Z,14.20
2017-08-06T03:45:09.302Z,14.20
2017-08-06T03:47:36.761Z,14.20
2017-08-06T03:50:04.346Z,14.20
2017-08-06T03:52:31.904Z,14.10
2017-08-06T03:54:59.383Z,14.10
2017-08-06T03:57:26.896Z,14.10
2017-08-06T03:59:54.388Z,14.10
2017-08-06T04:02:21.907Z,14.10
2017-08-06T04:04:49.410Z,14.00
2017-08-06T04:07:16.995Z,14.00
2017-08-06T04:09:44.942Z,14.10
2017-08-06T04:12:12.553Z,14.10
2017-08-06T04:14:40.109Z,14.10
2017-08-06T04:17:07.650Z,14.10
2017-08-06T04:19:35.128Z,14.10
2017-08-06T04:22:02.592Z,14.10
2017-08-06T04:24:30.102Z,14.10
2017-08-06T04:26:58.944Z,14.10
2017-08-06T04:29:26.569Z,14.00
2017-08-06T04:31:54.113Z,14.00
2017-08-06T04:34:21.612Z,14.00
2017-08-06T04:36:49.067Z,14.00
2017-08-06T04:39:16.648Z,14.00
2017-08-06T04:41:44.636Z,14.00
2017-08-06T04:44:12.145Z,14.00
2017-08-06T04:46:40.456Z,14.00
2017-08-06T04:49:07.956Z,14.00
2017-08-06T04:54:12.283Z,14.00
2017-08-06T04:56:39.787Z,14.00
2017-08-06T04:59:07.419Z,14.00
2017-08-06T05:01:34.921Z,14.10
2017-08-06T05:04:02.435Z,14.10
2017-08-06T05:06:29.911Z,14.10
2017-08-06T05:08:57.424Z,14.10
2017-08-06T05:11:26.204Z,14.10
2017-08-06T05:13:53.729Z,14.10
2017-08-06T05:16:21.276Z,14.10
2017-08-06T05:18:49.504Z,14.20
2017-08-06T05:21:21.642Z,14.20
2017-08-06T05:23:49.107Z,14.20
2017-08-06T05:26:16.623Z,14.20
2017-08-06T05:28:45.113Z,14.30
2017-08-06T05:31:12.654Z,14.30
2017-08-06T05:33:41.603Z,14.40
2017-08-06T05:36:11.277Z,14.40
2017-08-06T05:38:41.027Z,14.50
2017-08-06T05:41:08.557Z,14.60
2017-08-06T05:43:36.043Z,14.60
2017-08-06T05:46:03.539Z,14.60
2017-08-06T05:48:31.973Z,14.60
2017-08-06T05:50:59.467Z,14.70
2017-08-06T05:53:26.965Z,14.70
2017-08-06T05:55:54.479Z,14.80
2017-08-06T05:58:22.043Z,14.90
2017-08-06T06:00:49.618Z,14.90
2017-08-06T06:03:17.284Z,14.90
2017-08-06T06:05:44.834Z,15.00
2017-08-06T06:08:13.284Z,15.20
2017-08-06T06:10:40.787Z,15.10
2017-08-06T06:13:11.083Z,15.20
2017-08-06T06:15:39.931Z,15.20
2017-08-06T06:18:07.997Z,15.30
2017-08-06T06:20:35.561Z,15.40
2017-08-06T06:23:03.150Z,15.50
2017-08-06T06:25:30.731Z,15.50
2017-08-06T06:27:58.213Z,15.50
2017-08-06T06:30:25.751Z,15.60
2017-08-06T06:32:53.311Z,15.70
2017-08-06T06:35:20.991Z,15.60
2017-08-06T06:37:48.445Z,15.70
2017-08-06T06:40:15.981Z,16.00
2017-08-06T06:42:43.902Z,16.70
2017-08-06T06:45:12.339Z,18.10
2017-08-06T06:47:40.736Z,20.00
2017-08-06T06:50:09.569Z,21.10
2017-08-06T06:52:37.898Z,22.80
2017-08-06T06:55:05.572Z,23.70
2017-08-06T06:57:33.295Z,24.10
2017-08-06T07:00:03.341Z,24.50
2017-08-06T07:02:30.943Z,25.30
2017-08-06T07:04:58.460Z,25.50
2017-08-06T07:07:25.915Z,26.30
2017-08-06T07:09:53.427Z,26.20
2017-08-06T07:12:20.940Z,25.60
2017-08-06T07:14:48.462Z,26.70
2017-08-06T07:17:15.947Z,26.70
2017-08-06T07:19:43.527Z,26.60
2017-08-06T07:22:11.250Z,26.20
2017-08-06T07:24:38.695Z,26.70
2017-08-06T07:27:06.895Z,26.30
2017-08-06T07:29:34.423Z,26.80
2017-08-06T07:32:02.008Z,26.10
2017-08-06T07:34:30.308Z,25.70
2017-08-06T07:36:57.956Z,25.70
2017-08-06T07:39:25.990Z,25.80
2017-08-06T07:41:54.414Z,25.60
2017-08-06T07:44:24.985Z,25.90
2017-08-06T07:46:55.577Z,25.60
2017-08-06T07:49:23.171Z,26.00
2017-08-06T07:51:50.644Z,25.40
2017-08-06T07:54:19.239Z,25.90
2017-08-06T07:56:46.768Z,26.80
2017-08-06T07:59:14.450Z,27.00
2017-08-06T08:01:43.117Z,26.60
2017-08-06T08:04:12.470Z,25.80
2017-08-06T08:06:41.586Z,25.10
2017-08-06T08:09:09.231Z,23.90
2017-08-06T08:11:37.622Z,23.50
2017-08-06T08:14:05.281Z,24.00
2017-08-06T08:16:34.122Z,25.10
2017-08-06T08:19:02.019Z,25.10
2017-08-06T08:21:29.491Z,25.60
2017-08-06T08:23:57.977Z,25.80
2017-08-06T08:26:28.525Z,26.20
2017-08-06T08:28:56.252Z,26.80
2017-08-06T08:31:26.059Z,27.50
2017-08-06T08:33:53.759Z,27.30
2017-08-06T08:36:22.163Z,26.80
2017-08-06T08:38:50.693Z,26.70
2017-08-06T08:41:19.051Z,26.80
2017-08-06T08:43:48.647Z,27.10
2017-08-06T08:46:17.236Z,27.30
2017-08-06T08:48:44.829Z,27.50
2017-08-06T08:51:16.522Z,28.40
2017-08-06T08:53:46.866Z,28.30
2017-08-06T08:56:17.160Z,29.00
2017-08-06T08:58:44.829Z,28.50
2017-08-06T09:03:46.525Z,28.10
2017-08-06T09:06:14.281Z,27.20
2017-08-06T09:08:41.898Z,26.80
2017-08-06T09:11:10.744Z,27.20
2017-08-06T09:13:41.535Z,27.40
2017-08-06T09:16:10.364Z,27.40
2017-08-06T09:18:40.338Z,27.40
2017-08-06T09:21:08.705Z,27.50
2017-08-06T09:23:37.670Z,27.40
2017-08-06T09:26:05.392Z,28.50
2017-08-06T09:28:33.012Z,29.30
2017-08-06T09:31:02.818Z,28.90
2017-08-06T09:33:40.829Z,28.90
2017-08-06T09:36:08.445Z,29.50
2017-08-06T09:38:39.109Z,28.50
2017-08-06T09:41:06.715Z,28.60
2017-08-06T09:43:34.784Z,28.20
2017-08-06T09:46:06.004Z,28.20
2017-08-06T09:48:38.714Z,28.50
2017-08-06T09:51:22.430Z,28.40
2017-08-06T09:53:54.027Z,29.10
2017-08-06T09:56:40.982Z,28.80
2017-08-06T09:59:11.641Z,27.00
2017-08-06T10:01:49.437Z,26.30
2017-08-06T10:04:40.095Z,26.60
2017-08-06T10:07:27.642Z,24.70
2017-08-06T10:09:59.181Z,25.00
2017-08-06T10:12:28.032Z,25.00
2017-08-06T10:14:56.491Z,24.70
2017-08-06T10:17:33.052Z,24.40
2017-08-06T10:20:09.401Z,23.80
2017-08-06T10:22:39.500Z,24.60
2017-08-06T10:25:13.647Z,25.90
2017-08-06T10:27:49.884Z,26.00
2017-08-06T10:30:21.237Z,26.60
2017-08-06T10:32:52.083Z,27.30
2017-08-06T10:35:29.292Z,27.60
2017-08-06T10:40:32.899Z,27.10
2017-08-06T10:43:14.730Z,27.30
2017-08-06T10:45:42.699Z,27.60
2017-08-06T10:48:20.787Z,27.50
2017-08-06T10:53:29.668Z,26.70
2017-08-06T10:56:03.187Z,27.10
2017-08-06T10:58:43.642Z,27.00
2017-08-06T11:03:56.572Z,26.20
2017-08-06T11:06:33.982Z,27.00
2017-08-06T11:09:12.818Z,26.70
2017-08-06T11:11:49.336Z,25.90
2017-08-06T11:17:03.944Z,24.40
2017-08-06T11:19:32.253Z,23.60
2017-08-06T11:22:21.496Z,23.10
2017-08-06T11:25:03.013Z,22.80
2017-08-06T11:27:46.469Z,22.40
2017-08-06T11:30:14.297Z,22.20
2017-08-06T11:38:21.733Z,22.30
2017-08-06T11:40:52.074Z,22.10
2017-08-06T11:43:33.277Z,22.40
2017-08-06T11:46:19.297Z,22.30
2017-08-06T11:51:38.480Z,22.80
2017-08-06T11:54:12.075Z,22.70
2017-08-06T11:56:47.587Z,22.80
2017-08-06T12:01:59.413Z,22.90
2017-08-06T12:04:28.219Z,22.80
2017-08-06T12:06:56.473Z,22.90
2017-08-06T12:09:26.247Z,23.00
2017-08-06T12:11:57.022Z,23.40
2017-08-06T12:14:28.660Z,23.40
2017-08-06T12:17:02.868Z,23.50
2017-08-06T12:19:33.258Z,23.80
2017-08-06T12:22:04.874Z,23.80
2017-08-06T12:24:34.506Z,23.80
2017-08-06T12:27:04.118Z,23.80
2017-08-06T12:29:36.048Z,23.60
2017-08-06T12:32:04.382Z,23.60
2017-08-06T12:34:33.575Z,23.40
2017-08-06T12:37:10.755Z,23.00
2017-08-06T12:39:43.586Z,22.70
2017-08-06T12:42:11.620Z,22.90
2017-08-06T12:44:39.299Z,23.10
2017-08-06T12:47:09.888Z,23.20
2017-08-06T12:49:38.892Z,23.40
2017-08-06T12:52:08.395Z,23.50
2017-08-06T12:54:37.136Z,23.30
2017-08-06T12:57:06.244Z,23.30
2017-08-06T12:59:38.544Z,23.20
2017-08-06T13:02:07.541Z,23.30
2017-08-06T13:04:37.002Z,23.10
2017-08-06T13:07:06.165Z,22.90
2017-08-06T13:09:35.047Z,22.90
2017-08-06T13:12:05.214Z,22.90
2017-08-06T13:14:32.965Z,23.00
2017-08-06T13:17:02.409Z,23.00
2017-08-06T13:22:07.702Z,23.20
2017-08-06T13:24:42.431Z,23.30
2017-08-06T13:27:15.755Z,23.40
2017-08-06T13:29:45.252Z,23.50
2017-08-06T13:32:18.274Z,23.70
2017-08-06T13:34:46.940Z,23.70
2017-08-06T13:37:15.197Z,23.70
2017-08-06T13:39:46.015Z,23.60
2017-08-06T13:42:15.579Z,23.60
2017-08-06T13:44:43.372Z,23.80
2017-08-06T13:47:13.281Z,23.80
2017-08-06T13:52:19.061Z,23.70
2017-08-06T13:54:47.423Z,23.70
2017-08-06T13:57:15.307Z,23.70
2017-08-06T13:59:42.912Z,23.60
2017-08-06T14:02:10.611Z,23.60
2017-08-06T14:04:39.599Z,23.60
2017-08-06T14:07:10.045Z,23.60
2017-08-06T14:09:37.864Z,23.50
2017-08-06T14:12:07.211Z,23.70
2017-08-06T14:14:34.809Z,23.60
2017-08-06T14:17:02.314Z,23.70
2017-08-06T14:19:29.974Z,23.80
2017-08-06T14:21:57.814Z,23.70
2017-08-06T14:24:26.815Z,23.70
2017-08-06T14:26:54.508Z,23.60
2017-08-06T14:29:22.046Z,23.40
2017-08-06T14:31:49.556Z,23.30
2017-08-06T14:34:17.804Z,23.50
2017-08-06T14:36:45.383Z,23.50
2017-08-06T14:39:12.944Z,23.70
2017-08-06T14:41:40.520Z,23.90
2017-08-06T14:44:08.999Z,23.90
2017-08-06T14:46:36.685Z,23.90
2017-08-06T14:49:04.215Z,24.00
2017-08-06T14:51:32.083Z,24.00
2017-08-06T14:53:59.695Z,23.90
2017-08-06T14:56:27.326Z,24.00
2017-08-06T14:58:55.004Z,24.10
2017-08-06T15:01:22.652Z,24.20
2017-08-06T15:03:50.254Z,24.20
2017-08-06T15:06:17.852Z,24.20
2017-08-06T15:08:45.393Z,24.10
2017-08-06T15:11:12.969Z,24.10
2017-08-06T15:13:40.569Z,24.10
2017-08-06T15:16:08.314Z,24.10
2017-08-06T15:18:36.085Z,24.10
2017-08-06T15:21:03.581Z,24.00
2017-08-06T15:23:31.066Z,23.80
2017-08-06T15:25:59.456Z,23.90
2017-08-06T15:28:27.792Z,23.80
2017-08-06T15:30:55.303Z,23.80
2017-08-06T15:33:23.633Z,23.70
2017-08-06T15:35:51.314Z,23.70
2017-08-06T15:38:18.815Z,23.70
2017-08-06T15:40:46.308Z,23.50
2017-08-06T15:43:13.899Z,23.60
2017-08-06T15:48:23.016Z,23.40
2017-08-06T15:50:50.513Z,23.40
2017-08-06T15:53:18.006Z,23.50
2017-08-06T15:55:45.615Z,23.60
2017-08-06T15:58:13.240Z,23.70
2017-08-06T16:00:40.795Z,23.60
2017-08-06T16:03:08.334Z,23.70
2017-08-06T16:05:35.784Z,23.70
2017-08-06T16:08:03.513Z,23.60
2017-08-06T16:10:30.988Z,23.70
2017-08-06T16:12:58.445Z,23.70
2017-08-06T16:15:25.935Z,23.60
2017-08-06T16:17:54.237Z,23.50
2017-08-06T16:20:21.772Z,23.50
2017-08-06T16:22:49.318Z,23.60
2017-08-06T16:25:16.919Z,23.50
2017-08-06T16:27:44.581Z,23.60
2017-08-06T16:30:12.350Z,23.70
2017-08-06T16:32:40.164Z,23.70
2017-08-06T16:35:09.582Z,23.70
2017-08-06T16:37:37.349Z,23.70
2017-08-06T16:40:04.989Z,23.60
2017-08-06T16:42:32.659Z,23.50
2017-08-06T16:45:01.020Z,23.40
2017-08-06T16:47:28.773Z,23.40
2017-08-06T16:49:56.374Z,23.40
2017-08-06T16:52:24.759Z,23.30
2017-08-06T16:54:52.454Z,23.20
2017-08-06T16:57:19.964Z,23.10
2017-08-06T16:59:47.594Z,22.90
2017-08-06T17:02:15.280Z,22.90
2017-08-06T17:04:42.835Z,22.90
2017-08-06T17:07:10.357Z,22.80
2017-08-06T17:09:38.065Z,22.70
2017-08-06T17:12:05.567Z,22.60
2017-08-06T17:14:33.174Z,22.60
2017-08-06T17:17:00.940Z,22.60
2017-08-06T17:19:28.579Z,22.50
2017-08-06T17:21:56.930Z,22.40
2017-08-06T17:24:24.514Z,22.40
2017-08-06T17:26:52.050Z,22.40
2017-08-06T17:29:19.731Z,22.30
2017-08-06T17:31:47.332Z,22.30
2017-08-06T17:34:15.016Z,22.30
2017-08-06T17:36:43.253Z,22.20
2017-08-06T17:39:10.847Z,22.20
2017-08-06T17:41:38.496Z,22.20
2017-08-06T17:44:06.161Z,22.10
2017-08-06T17:46:35.627Z,22.10
2017-08-06T17:49:06.050Z,22.00
2017-08-06T17:51:44.163Z,21.90
2017-08-06T17:54:14.445Z,22.00
2017-08-06T17:56:42.093Z,21.90
2017-08-06T17:59:12.423Z,21.90
2017-08-06T18:01:48.224Z,21.80
2017-08-06T18:04:21.989Z,21.80
2017-08-06T18:06:51.080Z,21.80
2017-08-06T18:09:19.544Z,21.80
2017-08-06T18:11:47.102Z,21.80
2017-08-06T18:14:15.996Z,21.80
2017-08-06T18:16:44.887Z,21.80
2017-08-06T18:19:16.606Z,21.70
2017-08-06T18:21:44.572Z,21.70
2017-08-06T18:24:12.360Z,21.60
2017-08-06T18:26:40.596Z,21.60
2017-08-06T18:29:10.423Z,21.60
2017-08-06T18:31:38.782Z,21.50
2017-08-06T18:34:06.407Z,21.50
2017-08-06T18:36:43.857Z,21.50
2017-08-06T18:39:17.123Z,21.40
2017-08-06T18:41:44.807Z,21.30
2017-08-06T18:44:15.830Z,21.20
2017-08-06T18:46:44.193Z,21.10
2017-08-06T18:49:11.804Z,21.10
2017-08-06T18:51:39.395Z,21.00
2017-08-06T18:54:07.095Z,20.90
2017-08-06T18:56:35.598Z,20.90
2017-08-06T18:59:04.374Z,20.90
2017-08-06T19:01:35.737Z,20.90
2017-08-06T19:04:05.540Z,20.90
2017-08-06T19:06:33.087Z,20.90
2017-08-06T19:09:04.529Z,20.80
2017-08-06T19:11:32.160Z,20.70
2017-08-06T19:14:00.074Z,20.70
2017-08-06T19:16:29.497Z,20.60
2017-08-06T19:19:00.402Z,20.50
2017-08-06T19:21:29.428Z,20.50
2017-08-06T19:23:56.987Z,20.40
2017-08-06T19:26:25.140Z,20.40
2017-08-06T19:28:53.713Z,20.40
2017-08-06T19:31:24.364Z,20.30
2017-08-06T19:33:51.968Z,20.30
2017-08-06T19:36:29.240Z,20.30
2017-08-06T19:39:03.262Z,20.20
2017-08-06T19:41:34.700Z,20.10
2017-08-06T19:44:04.238Z,20.10
2017-08-06T19:46:32.945Z,20.00
2017-08-06T19:51:35.034Z,19.90
2017-08-06T19:54:02.567Z,19.90
2017-08-06T19:56:32.997Z,19.80
2017-08-06T19:59:01.302Z,19.80
2017-08-06T20:01:31.396Z,19.70
2017-08-06T20:04:00.250Z,19.70
2017-08-06T20:06:33.666Z,19.60
2017-08-06T20:09:01.988Z,19.60
2017-08-06T20:11:31.316Z,19.50
2017-08-06T20:14:00.171Z,19.50
2017-08-06T20:16:30.615Z,19.40
2017-08-06T20:18:58.484Z,19.30
2017-08-06T20:21:27.799Z,19.30
2017-08-06T20:23:59.050Z,19.20
2017-08-06T20:26:27.155Z,19.20
2017-08-06T20:28:54.902Z,19.10
2017-08-06T20:33:57.687Z,19.10
2017-08-06T20:36:26.995Z,19.00
2017-08-06T20:38:54.588Z,19.00
2017-08-06T20:41:23.318Z,18.90
2017-08-06T20:43:52.878Z,18.90
2017-08-06T20:46:21.268Z,18.80
2017-08-06T20:48:48.974Z,18.80
2017-08-06T20:51:17.434Z,18.80
2017-08-06T20:53:46.194Z,18.70
2017-08-06T20:56:13.798Z,18.70
2017-08-06T20:58:41.727Z,18.70
2017-08-06T21:01:09.441Z,18.60
2017-08-06T21:03:37.046Z,18.60
2017-08-06T21:06:06.575Z,18.60
2017-08-06T21:08:34.192Z,18.50
2017-08-06T21:11:03.371Z,18.50
2017-08-06T21:13:32.504Z,18.40
2017-08-06T21:16:00.087Z,18.40
2017-08-06T21:18:27.767Z,18.40
2017-08-06T21:20:55.439Z,18.30
2017-08-06T21:23:25.071Z,18.30
2017-08-06T21:25:56.429Z,18.20
2017-08-06T21:28:24.211Z,18.20
2017-08-06T21:30:51.740Z,18.20
2017-08-06T21:33:19.269Z,18.20
2017-08-06T21:35:46.855Z,18.10
2017-08-06T21:38:15.111Z,18.10
2017-08-06T21:40:43.141Z,18.10
2017-08-06T21:43:10.738Z,18.00
2017-08-06T21:45:38.315Z,18.00
2017-08-06T21:48:05.799Z,18.00
2017-08-06T21:50:34.099Z,17.90
2017-08-06T21:53:02.425Z,17.90
2017-08-06T21:55:32.158Z,17.90
2017-08-06T21:57:59.971Z,17.80
2017-08-06T22:00:27.511Z,17.80
2017-08-06T22:02:55.260Z,17.80
2017-08-06T22:05:24.598Z,17.80
2017-08-06T22:07:52.392Z,17.70
2017-08-06T22:10:19.942Z,17.80
2017-08-06T22:12:47.435Z,17.80
2017-08-06T22:15:15.532Z,17.80
2017-08-06T22:17:43.018Z,17.70
2017-08-06T22:20:10.508Z,17.60
2017-08-06T22:22:38.114Z,17.40
2017-08-06T22:27:40.347Z,17.20
2017-08-06T22:30:09.531Z,17.10
2017-08-06T22:32:37.186Z,17.00
2017-08-06T22:35:04.857Z,16.90
2017-08-06T22:37:32.368Z,16.80
2017-08-06T22:40:00.083Z,16.70
2017-08-06T22:42:28.449Z,16.60
2017-08-06T22:44:56.013Z,16.60
2017-08-06T22:47:23.575Z,16.60
2017-08-06T22:52:28.636Z,16.40
2017-08-06T22:54:56.337Z,16.40
2017-08-06T22:57:24.142Z,16.40
2017-08-06T22:59:51.727Z,16.30
2017-08-06T23:02:20.146Z,16.30
2017-08-06T23:04:51.782Z,16.20
2017-08-06T23:07:19.454Z,16.20
2017-08-06T23:09:50.801Z,16.30
2017-08-06T23:12:19.219Z,16.30
2017-08-06T23:14:46.820Z,16.20
2017-08-06T23:17:14.910Z,16.30
2017-08-06T23:19:43.770Z,16.20
2017-08-06T23:22:11.331Z,16.20
2017-08-06T23:24:39.828Z,16.10
2017-08-06T23:27:07.570Z,16.10
2017-08-06T23:29:35.931Z,16.10
2017-08-06T23:32:05.093Z,16.00
2017-08-06T23:34:33.098Z,15.90
2017-08-06T23:37:03.535Z,15.80
2017-08-06T23:39:32.129Z,15.80
2017-08-06T23:41:59.765Z,15.80
2017-08-06T23:44:28.416Z,15.70
2017-08-06T23:46:55.924Z,15.70
2017-08-06T23:49:26.380Z,15.60
2017-08-06T23:51:54.113Z,15.60
2017-08-06T23:54:22.641Z,15.60
2017-08-06T23:56:50.313Z,15.50
2017-08-06T23:59:17.985Z,15.50
